createdAt,value
2023-12-09T00:00:35.926Z,26.17
2023-12-09T00:05:39.584Z,23.37
2023-12-09T00:10:43.194Z,30.30
2023-12-09T00:15:46.951Z,31.93
2023-12-09T00:20:51.125Z,38.73
2023-12-09T00:25:54.660Z,29.37
2023-12-09T00:30:58.125Z,30.67
2023-12-09T00:36:01.633Z,28.00
2023-12-09T00:41:05.961Z,24.73
2023-12-09T00:46:09.397Z,32.23
2023-12-09T00:51:14.030Z,25.00
2023-12-09T00:56:33.054Z,30.77
2023-12-09T01:01:38.812Z,23.27
2023-12-09T01:06:42.322Z,34.23
2023-12-09T01:11:46.961Z,33.00
2023-12-09T01:16:50.550Z,27.97
2023-12-09T01:21:54.174Z,27.00
2023-12-09T01:26:57.598Z,27.67
2023-12-09T01:32:01.074Z,26.23
2023-12-09T01:37:05.243Z,19.97
2023-12-09T01:42:10.801Z,27.73
2023-12-09T01:47:14.580Z,22.90
2023-12-09T01:52:19.557Z,25.83
2023-12-09T01:57:23.359Z,26.00
2023-12-09T02:02:26.977Z,27.97
2023-12-09T02:07:30.632Z,24.03
2023-12-09T02:12:47.083Z,23.73
2023-12-09T02:18:06.941Z,25.80
2023-12-09T02:23:28.038Z,21.93
2023-12-09T02:28:33.173Z,23.80
2023-12-09T02:33:37.938Z,25.53
2023-12-09T02:38:42.803Z,25.67
2023-12-09T02:43:47.905Z,26.03
2023-12-09T02:48:51.567Z,26.50
2023-12-09T02:53:55.930Z,17.90
2023-12-09T02:58:59.486Z,22.67
2023-12-09T03:04:03.215Z,25.50
2023-12-09T03:09:06.716Z,21.40
2023-12-09T03:14:10.157Z,21.73
2023-12-09T03:19:13.700Z,20.90
2023-12-09T03:24:17.678Z,26.10
2023-12-09T03:29:21.961Z,17.97
2023-12-09T03:34:25.487Z,26.47
2023-12-09T03:39:29.052Z,25.40
2023-12-09T03:44:32.687Z,25.30
2023-12-09T03:49:36.226Z,19.67
2023-12-09T03:54:40.329Z,25.77
2023-12-09T03:59:43.598Z,26.47
2023-12-09T04:04:46.861Z,26.67
2023-12-09T04:09:51.550Z,20.03
2023-12-09T04:14:55.848Z,25.47
2023-12-09T04:19:59.405Z,24.70
2023-12-09T04:25:06.267Z,20.40
2023-12-09T04:30:10.941Z,24.60
2023-12-09T04:35:15.004Z,27.00
2023-12-09T04:40:19.093Z,30.53
2023-12-09T04:45:23.861Z,22.60
2023-12-09T04:50:27.402Z,25.70
2023-12-09T04:55:30.913Z,30.17
2023-12-09T05:00:34.582Z,31.13
2023-12-09T05:05:38.043Z,32.40
2023-12-09T05:10:41.589Z,35.17
2023-12-09T05:15:45.574Z,32.90
2023-12-09T05:20:49.061Z,31.70
2023-12-09T05:25:53.183Z,28.33
2023-12-09T05:30:57.438Z,26.13
2023-12-09T05:36:01.374Z,22.87
2023-12-09T05:41:06.533Z,28.10
2023-12-09T05:46:19.361Z,31.23
2023-12-09T05:51:23.040Z,24.93
2023-12-09T05:56:26.728Z,32.93
2023-12-09T06:01:30.217Z,31.13
2023-12-09T06:06:33.842Z,28.97
2023-12-09T06:11:37.253Z,34.87
2023-12-09T06:16:40.723Z,30.07
2023-12-09T06:21:44.214Z,32.07
2023-12-09T06:26:47.679Z,30.63
2023-12-09T06:31:51.166Z,30.70
2023-12-09T06:36:54.666Z,34.93
2023-12-09T06:41:58.163Z,31.23
2023-12-09T06:47:01.631Z,42.97
2023-12-09T06:52:05.835Z,69.13
2023-12-09T06:57:09.320Z,39.40
2023-12-09T07:02:12.837Z,57.87
2023-12-09T07:07:21.847Z,48.07
2023-12-09T07:12:27.572Z,37.43
2023-12-09T07:17:31.196Z,30.53
2023-12-09T07:22:34.854Z,35.20
2023-12-09T07:27:38.382Z,34.30
2023-12-09T07:32:42.073Z,34.03
2023-12-09T07:37:47.869Z,39.37
2023-12-09T07:42:51.642Z,38.33
2023-12-09T07:47:56.188Z,44.00
2023-12-09T07:53:00.800Z,42.83
2023-12-09T07:58:04.997Z,34.23
2023-12-09T08:03:08.679Z,37.53
2023-12-09T08:08:12.139Z,40.97
2023-12-09T08:13:15.636Z,41.57
2023-12-09T08:18:19.411Z,34.27
2023-12-09T08:23:23.002Z,35.57
2023-12-09T08:28:28.677Z,38.73
2023-12-09T08:33:32.530Z,40.50
2023-12-09T08:38:36.343Z,35.07
2023-12-09T08:43:39.905Z,33.73
2023-12-09T08:48:43.944Z,40.83
2023-12-09T08:53:47.479Z,34.63
2023-12-09T08:58:51.011Z,40.67
2023-12-09T09:03:54.572Z,38.67
2023-12-09T09:08:58.164Z,31.87
2023-12-09T09:14:01.715Z,34.37
2023-12-09T09:19:06.502Z,31.33
2023-12-09T09:24:10.314Z,38.57
2023-12-09T09:29:13.988Z,30.30
2023-12-09T09:34:18.085Z,44.70
2023-12-09T09:39:21.526Z,37.27
2023-12-09T09:44:33.772Z,29.17
2023-12-09T09:49:39.736Z,28.70
2023-12-09T09:54:45.540Z,28.60
2023-12-09T09:59:49.305Z,28.80
2023-12-09T10:04:53.195Z,31.47
2023-12-09T10:09:56.663Z,31.43
2023-12-09T10:15:02.393Z,26.53
2023-12-09T10:20:07.993Z,28.67
2023-12-09T10:25:20.860Z,30.23
2023-12-09T10:30:25.167Z,28.53
2023-12-09T10:35:29.026Z,27.87
2023-12-09T10:40:33.917Z,23.43
2023-12-09T10:45:37.453Z,24.63
2023-12-09T10:50:41.230Z,26.40
2023-12-09T10:55:44.869Z,29.53
2023-12-09T11:00:50.316Z,36.20
2023-12-09T11:05:56.526Z,33.33
2023-12-09T11:11:05.068Z,31.13
2023-12-09T11:16:20.805Z,26.47
2023-12-09T11:21:27.505Z,32.17
2023-12-09T11:26:36.705Z,29.87
2023-12-09T11:31:41.693Z,29.00
2023-12-09T11:36:47.910Z,35.33
2023-12-09T11:41:52.262Z,31.07
2023-12-09T11:46:56.806Z,29.77
2023-12-09T11:52:00.353Z,29.80
2023-12-09T11:57:04.696Z,30.97
2023-12-09T12:02:08.771Z,37.40
2023-12-09T12:07:12.498Z,29.30
2023-12-09T12:12:15.950Z,26.10
2023-12-09T12:17:19.538Z,33.70
2023-12-09T12:22:23.266Z,29.57
2023-12-09T12:27:27.112Z,32.70
2023-12-09T12:32:38.906Z,31.83
2023-12-09T12:37:42.553Z,36.03
2023-12-09T12:42:46.812Z,30.20
2023-12-09T12:47:50.798Z,43.63
2023-12-09T12:52:56.006Z,33.77
2023-12-09T12:57:59.826Z,33.97
2023-12-09T13:03:06.274Z,37.70
2023-12-09T13:08:09.846Z,30.47
2023-12-09T13:13:15.995Z,39.27
2023-12-09T13:18:22.665Z,34.57
2023-12-09T13:23:29.257Z,36.87
2023-12-09T13:28:32.997Z,33.13
2023-12-09T13:33:36.705Z,32.23
2023-12-09T13:38:40.801Z,28.97
2023-12-09T13:43:44.379Z,33.43
2023-12-09T13:48:47.906Z,37.83
2023-12-09T13:53:51.569Z,30.27
2023-12-09T13:58:55.649Z,34.27
2023-12-09T14:03:59.372Z,39.40
2023-12-09T14:09:03.671Z,38.57
2023-12-09T14:14:07.627Z,43.00
2023-12-09T14:19:11.957Z,55.20
2023-12-09T14:24:17.299Z,40.47
2023-12-09T14:29:20.997Z,46.30
2023-12-09T14:34:27.190Z,55.67
2023-12-09T14:39:30.960Z,52.87
2023-12-09T14:44:34.405Z,45.53
2023-12-09T14:49:38.766Z,42.97
2023-12-09T14:54:43.244Z,43.13
2023-12-09T14:59:46.825Z,56.17
2023-12-09T15:04:50.395Z,50.17
2023-12-09T15:09:54.169Z,42.17
2023-12-09T15:14:58.032Z,40.33
2023-12-09T15:20:01.837Z,41.00
2023-12-09T15:25:06.882Z,47.43
2023-12-09T15:30:11.934Z,46.23
2023-12-09T15:35:16.850Z,41.67
2023-12-09T15:40:20.504Z,40.13
2023-12-09T15:45:23.973Z,37.27
2023-12-09T15:50:27.636Z,39.00
2023-12-09T15:55:32.885Z,37.87
2023-12-09T16:00:36.435Z,46.73
2023-12-09T16:05:40.809Z,39.97
2023-12-09T16:10:44.373Z,44.50
2023-12-09T16:15:48.506Z,49.40
2023-12-09T16:20:52.302Z,52.73
2023-12-09T16:25:55.879Z,55.93
2023-12-09T16:30:59.381Z,48.43
2023-12-09T16:36:03.172Z,38.50
2023-12-09T16:41:07.354Z,44.00
2023-12-09T16:46:10.824Z,38.97
2023-12-09T16:51:14.570Z,44.23
2023-12-09T16:56:19.293Z,46.00
2023-12-09T17:01:23.702Z,53.10
2023-12-09T17:06:27.271Z,63.97
2023-12-09T17:11:30.948Z,58.27
2023-12-09T17:16:34.472Z,60.90
2023-12-09T17:21:38.032Z,62.57
2023-12-09T17:26:41.641Z,53.27
2023-12-09T17:31:46.850Z,89.17
2023-12-09T17:36:51.984Z,55.43
2023-12-09T17:41:58.718Z,46.53
2023-12-09T17:47:02.805Z,39.30
2023-12-09T17:52:06.468Z,75.17
2023-12-09T17:57:10.870Z,59.47
2023-12-09T18:02:14.327Z,52.97
2023-12-09T18:07:18.274Z,56.43
2023-12-09T18:12:22.189Z,62.37
2023-12-09T18:17:25.742Z,46.33
2023-12-09T18:22:29.568Z,36.83
2023-12-09T18:27:33.532Z,52.10
2023-12-09T18:32:39.722Z,48.60
2023-12-09T18:37:46.014Z,46.30
2023-12-09T18:42:52.090Z,45.10
2023-12-09T18:47:56.208Z,45.30
2023-12-09T18:52:59.718Z,36.47
2023-12-09T18:58:04.113Z,44.63
2023-12-09T19:03:07.928Z,40.47
2023-12-09T19:08:11.500Z,34.73
2023-12-09T19:13:14.863Z,33.33
2023-12-09T19:18:19.222Z,42.13
2023-12-09T19:23:23.021Z,41.03
2023-12-09T19:28:27.071Z,38.33
2023-12-09T19:33:30.639Z,31.63
2023-12-09T19:38:34.226Z,40.43
2023-12-09T19:43:37.784Z,32.07
2023-12-09T19:48:42.067Z,35.67
2023-12-09T19:53:48.675Z,36.23
2023-12-09T19:58:52.902Z,34.63
2023-12-09T20:03:56.379Z,34.90
2023-12-09T20:09:00.011Z,41.70
2023-12-09T20:14:03.453Z,38.13
2023-12-09T20:19:08.708Z,35.63
2023-12-09T20:24:12.783Z,31.80
2023-12-09T20:29:16.298Z,36.60
2023-12-09T20:34:19.970Z,30.73
2023-12-09T20:39:24.466Z,30.90
2023-12-09T20:44:28.042Z,32.83
2023-12-09T20:49:31.538Z,36.80
2023-12-09T20:54:35.063Z,34.13
2023-12-09T20:59:39.487Z,33.37
2023-12-09T21:04:46.434Z,33.50
2023-12-09T21:09:52.524Z,43.97
2023-12-09T21:14:56.017Z,44.77
2023-12-09T21:20:01.088Z,40.00
2023-12-09T21:25:05.475Z,45.63
2023-12-09T21:30:09.796Z,42.63
2023-12-09T21:35:13.466Z,46.23
2023-12-09T21:40:17.773Z,40.77
2023-12-09T21:45:21.908Z,43.80
2023-12-09T21:50:26.433Z,47.10
2023-12-09T21:55:32.348Z,40.80
2023-12-09T22:00:36.348Z,43.43
2023-12-09T22:05:40.048Z,41.03
2023-12-09T22:10:43.454Z,47.53
2023-12-09T22:15:47.715Z,43.53
2023-12-09T22:20:51.211Z,43.80
2023-12-09T22:25:54.792Z,34.43
2023-12-09T22:30:59.006Z,34.23
2023-12-09T22:36:02.537Z,30.90
2023-12-09T22:41:06.282Z,43.87
2023-12-09T22:46:10.668Z,35.20
2023-12-09T22:51:21.817Z,37.37
2023-12-09T22:56:28.715Z,41.90
2023-12-09T23:01:34.170Z,36.47
2023-12-09T23:06:38.771Z,36.47
2023-12-09T23:11:42.106Z,32.90
2023-12-09T23:16:46.507Z,46.77
2023-12-09T23:21:50.913Z,34.87
2023-12-09T23:26:55.323Z,37.17
2023-12-09T23:31:58.584Z,42.07
2023-12-09T23:37:01.987Z,37.90
2023-12-09T23:42:05.825Z,45.67
2023-12-09T23:47:09.333Z,38.97
2023-12-09T23:52:12.963Z,38.40
2023-12-09T23:57:16.586Z,41.03
